Time;durP1;ratioP1;P1;durP2;ratioP2;P2;SDS_P1;SDS_P2;PMS_P1;PMS_P2;Temp;Humidity;BMP_temperature;BMP_pressure;BME280_temperature;BME280_humidity;BME280_pressure;Samples;Min_cycle;Max_cycle;Signal;HPM_P1;HPM_P2
2023/07/27 00:00:20;;;;;;;8.45;6.00;;;;;;;12.37;89.70;100631.59;7394651;19;20536;-67
2023/07/27 00:02:48;;;;;;;8.15;5.80;;;;;;;12.32;89.53;100630.00;7394911;19;20027;-68
2023/07/27 00:05:16;;;;;;;8.50;5.68;;;;;;;12.28;90.09;100631.00;7394507;19;20086;-67
2023/07/27 00:07:45;;;;;;;6.07;5.45;;;;;;;12.24;90.31;100629.38;7392647;19;20010;-67
2023/07/27 00:10:13;;;;;;;6.25;5.65;;;;;;;12.20;89.82;100636.50;7394350;19;20576;-67
2023/07/27 00:12:42;;;;;;;8.35;6.45;;;;;;;12.14;90.24;100629.66;7394624;19;20086;-67
2023/07/27 00:15:13;;;;;;;7.10;5.82;;;;;;;12.12;89.97;100626.22;7392172;19;20078;-67
2023/07/27 00:17:43;;;;;;;8.10;6.45;;;;;;;12.10;90.06;100627.19;7392974;19;20074;-67
2023/07/27 00:20:13;;;;;;;11.23;6.32;;;;;;;12.08;90.30;100624.59;7394162;19;20066;-67
2023/07/27 00:22:41;;;;;;;6.85;5.65;;;;;;;12.05;90.50;100627.31;7394369;19;20018;-66
2023/07/27 00:25:10;;;;;;;7.03;6.15;;;;;;;11.99;90.42;100620.47;7394299;19;20097;-66
2023/07/27 00:27:38;;;;;;;7.07;5.72;;;;;;;11.96;90.52;100628.44;7392138;19;20507;-67
2023/07/27 00:30:08;;;;;;;7.95;6.07;;;;;;;11.92;90.50;100632.03;7394227;19;20082;-67
2023/07/27 00:32:39;;;;;;;7.13;5.93;;;;;;;11.88;90.83;100631.25;7398011;19;20018;-67
2023/07/27 00:35:09;;;;;;;6.82;6.10;;;;;;;11.84;90.78;100620.88;7398932;19;20551;-68
2023/07/27 00:37:37;;;;;;;6.90;5.90;;;;;;;11.82;90.85;100622.69;7398615;19;20066;-67
2023/07/27 00:40:07;;;;;;;7.55;5.90;;;;;;;11.80;90.65;100619.25;7400854;19;20513;-68
2023/07/27 00:42:35;;;;;;;7.25;6.10;;;;;;;11.78;90.79;100619.28;7401161;19;20011;-67
2023/07/27 00:45:04;;;;;;;6.72;6.03;;;;;;;11.78;90.79;100614.03;7400742;19;20074;-67
2023/07/27 00:47:32;;;;;;;6.55;5.85;;;;;;;11.77;90.98;100612.31;7398908;19;20078;-67
2023/07/27 00:50:03;;;;;;;14.27;6.85;;;;;;;11.78;90.90;100615.78;7401550;19;20070;-68
2023/07/27 00:52:32;;;;;;;6.88;6.20;;;;;;;11.73;91.07;100610.69;7402899;19;20070;-67
2023/07/27 00:55:01;;;;;;;7.25;6.40;;;;;;;11.76;91.09;100615.84;7400967;19;20015;-68
2023/07/27 00:57:30;;;;;;;7.95;6.50;;;;;;;11.74;91.12;100613.25;7398330;19;20487;-67
2023/07/27 00:59:59;;;;;;;7.85;6.50;;;;;;;11.73;91.33;100610.69;7400503;19;20015;-67
2023/07/27 01:02:28;;;;;;;7.82;6.60;;;;;;;11.72;91.12;100615.06;7397776;19;20032;-66
2023/07/27 01:04:57;;;;;;;7.95;6.47;;;;;;;11.68;91.35;100610.81;7400568;19;20023;-67
2023/07/27 01:07:28;;;;;;;7.53;6.57;;;;;;;11.67;91.52;100606.44;7398615;19;20073;-67
2023/07/27 01:09:56;;;;;;;8.15;7.32;;;;;;;11.64;91.43;100605.66;7400469;19;20018;-68
2023/07/27 01:12:32;;;;;;;8.07;7.28;;;;;;;11.62;91.33;100608.34;7399799;19;20015;-67
2023/07/27 01:15:14;;;;;;;7.82;7.13;;;;;;;11.60;91.72;100602.28;7397580;19;20017;-65
2023/07/27 01:17:55;;;;;;;8.80;7.88;;;;;;;11.58;91.85;100601.47;7398132;19;20089;-66
2023/07/27 01:20:31;;;;;;;8.15;7.13;;;;;;;11.55;91.85;100601.53;7398167;19;20011;-65
2023/07/27 01:23:40;;;;;;;8.43;7.63;;;;;;;11.53;92.21;100606.84;7397254;19;20509;-65
2023/07/27 01:26:39;;;;;;;8.25;7.47;;;;;;;11.51;92.15;100600.78;7397755;19;20011;-65
2023/07/27 01:29:21;;;;;;;8.57;7.47;;;;;;;11.49;92.04;100607.84;7399196;19;20078;-66
2023/07/27 01:31:54;;;;;;;8.65;7.72;;;;;;;11.46;92.14;100607.94;7400124;19;20070;-66
2023/07/27 01:34:29;;;;;;;8.52;7.63;;;;;;;11.43;92.48;100608.00;7399030;19;20011;-66
2023/07/27 01:37:01;;;;;;;8.43;7.57;;;;;;;11.39;92.64;100604.59;7396989;19;20390;-66
2023/07/27 01:39:31;;;;;;;8.93;8.02;;;;;;;11.35;92.57;100605.59;7399604;19;20015;-65
2023/07/27 01:42:01;;;;;;;10.05;8.52;;;;;;;11.32;92.62;100604.81;7397485;19;20365;-66
2023/07/27 01:44:32;;;;;;;9.75;8.25;;;;;;;11.30;92.77;100609.22;7398865;19;20015;-65
2023/07/27 01:47:06;;;;;;;10.50;8.25;;;;;;;11.28;92.66;100608.41;7397056;19;20015;-66
2023/07/27 01:49:36;;;;;;;10.07;9.18;;;;;;;11.24;93.07;100605.00;7399431;19;20078;-65
2023/07/27 01:52:06;;;;;;;10.43;8.02;;;;;;;11.22;93.21;100605.06;7398917;19;20081;-65
2023/07/27 01:54:36;;;;;;;9.52;8.63;;;;;;;11.20;93.08;100593.72;7397970;19;20081;-65
2023/07/27 01:57:06;;;;;;;9.45;8.45;;;;;;;11.18;93.25;100599.91;7397112;19;20074;-65
2023/07/27 01:59:35;;;;;;;10.23;8.55;;;;;;;11.18;93.25;100602.53;7396960;19;20042;-65
2023/07/27 02:02:07;;;;;;;10.45;8.73;;;;;;;11.15;93.37;100603.50;7398662;19;20022;-67
2023/07/27 02:04:36;;;;;;;11.77;9.07;;;;;;;11.13;93.55;100596.56;7398903;19;20410;-65
2023/07/27 02:07:05;;;;;;;8.82;8.02;;;;;;;11.11;93.42;100595.72;7395788;19;20082;-65
2023/07/27 02:09:33;;;;;;;9.45;8.50;;;;;;;11.09;93.80;100595.78;7398323;19;20078;-65
2023/07/27 02:12:08;;;;;;;10.52;8.90;;;;;;;11.08;93.47;100599.28;7397867;19;20066;-65
2023/07/27 02:14:46;;;;;;;11.32;9.15;;;;;;;11.05;93.86;100594.97;7397732;19;20081;-65
2023/07/27 02:17:22;;;;;;;10.13;8.55;;;;;;;11.03;94.18;100593.31;7396058;19;20025;-65
2023/07/27 02:19:58;;;;;;;10.48;9.18;;;;;;;11.01;93.90;100593.34;7401545;19;20028;-65
2023/07/27 02:22:28;;;;;;;9.68;8.05;;;;;;;10.99;93.96;100592.50;7400996;19;20028;-66
2023/07/27 02:24:57;;;;;;;11.32;9.43;;;;;;;10.97;93.92;100588.22;7396854;19;20094;-65
2023/07/27 02:27:25;;;;;;;11.27;8.93;;;;;;;10.96;93.92;100589.13;7396259;19;20014;-65
2023/07/27 02:29:53;;;;;;;10.40;9.30;;;;;;;10.95;93.84;100582.16;7397623;19;20066;-66
2023/07/27 02:32:25;;;;;;;10.27;9.35;;;;;;;10.93;94.03;100579.53;7395466;19;20007;-65
2023/07/27 02:34:53;;;;;;;12.05;9.40;;;;;;;10.94;94.18;100583.06;7397159;19;20634;-65
2023/07/27 02:37:22;;;;;;;13.90;11.60;;;;;;;10.92;94.35;100576.06;7395619;19;20427;-66
2023/07/27 02:39:50;;;;;;;14.70;11.32;;;;;;;10.95;94.31;100582.16;7395333;19;20031;-65
2023/07/27 02:42:18;;;;;;;13.13;11.73;;;;;;;10.94;94.82;100577.81;7396835;19;20078;-65
2023/07/27 02:44:47;;;;;;;15.25;11.95;;;;;;;10.94;94.44;100577.81;7396081;19;20536;-65
2023/07/27 02:47:15;;;;;;;15.82;12.05;;;;;;;10.95;94.69;100584.78;7395503;19;20420;-66
2023/07/27 02:49:46;;;;;;;12.80;11.40;;;;;;;10.94;94.41;100580.44;7394944;19;20552;-66
2023/07/27 02:52:15;;;;;;;13.57;11.13;;;;;;;10.93;94.54;100582.16;7397391;19;20027;-66
2023/07/27 02:54:43;;;;;;;16.42;11.80;;;;;;;10.91;94.42;100571.72;7395439;19;20194;-66
2023/07/27 02:57:12;;;;;;;11.48;10.02;;;;;;;10.92;94.56;100568.19;7395631;19;20074;-66
2023/07/27 02:59:40;;;;;;;12.35;11.02;;;;;;;10.92;94.49;100573.44;7396226;19;20082;-66
2023/07/27 03:02:09;;;;;;;14.05;11.70;;;;;;;10.92;94.69;100570.81;7394559;19;20513;-66
2023/07/27 03:04:37;;;;;;;14.35;12.15;;;;;;;10.95;94.53;100571.66;7395581;19;20021;-66
2023/07/27 03:07:08;;;;;;;13.18;11.23;;;;;;;10.94;94.55;100568.16;7395312;19;20443;-66
2023/07/27 03:09:37;;;;;;;15.25;10.70;;;;;;;10.95;94.49;100567.25;7396389;19;20070;-66
2023/07/27 03:12:06;;;;;;;12.73;11.25;;;;;;;10.96;94.45;100566.34;7395975;19;20078;-66
2023/07/27 03:14:35;;;;;;;13.43;11.20;;;;;;;10.96;94.41;100568.13;7395980;19;20014;-66
2023/07/27 03:17:03;;;;;;;15.38;12.00;;;;;;;10.96;94.29;100570.75;7394316;19;20086;-66
2023/07/27 03:19:31;;;;;;;14.80;12.23;;;;;;;10.96;94.44;100570.75;7396157;19;20439;-66
2023/07/27 03:22:00;;;;;;;11.32;10.18;;;;;;;10.96;94.39;100565.50;7395919;19;20074;-66
2023/07/27 03:24:31;;;;;;;10.63;8.85;;;;;;;10.97;94.29;100572.47;7395623;19;20042;-66
2023/07/27 03:26:59;;;;;;;12.85;10.00;;;;;;;10.96;94.43;100565.50;7395119;19;20073;-63
2023/07/27 03:29:28;;;;;;;12.40;9.75;;;;;;;10.95;94.43;100554.13;7395542;19;20086;-65
2023/07/27 03:31:56;;;;;;;11.93;8.95;;;;;;;10.95;94.33;100559.38;7395388;19;20082;-65
2023/07/27 03:34:24;;;;;;;10.98;9.65;;;;;;;10.96;94.34;100562.88;7394657;19;20468;-64
2023/07/27 03:36:53;;;;;;;9.68;8.52;;;;;;;10.96;94.33;100563.72;7393161;19;20434;-65
2023/07/27 03:39:21;;;;;;;9.77;8.15;;;;;;;10.96;94.22;100570.75;7395393;19;20066;-65
2023/07/27 03:41:52;;;;;;;9.13;8.07;;;;;;;10.95;94.21;100566.41;7394962;19;20052;-65
2023/07/27 03:44:21;;;;;;;9.68;8.60;;;;;;;10.97;94.26;100569.84;7394701;19;20071;-65
2023/07/27 03:46:49;;;;;;;9.63;8.52;;;;;;;10.96;94.26;100561.09;7394117;19;20018;-65
2023/07/27 03:49:17;;;;;;;10.13;8.70;;;;;;;10.96;94.22;100560.25;7394892;19;20074;-66
2023/07/27 03:51:46;;;;;;;12.82;11.43;;;;;;;10.97;94.19;100568.09;7394585;19;20505;-65
2023/07/27 03:54:14;;;;;;;10.55;7.65;;;;;;;10.97;94.30;100561.97;7394503;19;20426;-65
2023/07/27 03:56:43;;;;;;;7.70;6.95;;;;;;;10.98;94.24;100561.06;7394080;19;20090;-65
2023/07/27 03:59:14;;;;;;;8.52;7.72;;;;;;;11.00;94.08;100562.75;7393696;19;20429;-67
2023/07/27 04:01:42;;;;;;;7.47;6.78;;;;;;;11.02;93.95;100567.94;7394645;19;20078;-65
2023/07/27 04:04:11;;;;;;;7.07;6.38;;;;;;;11.04;93.92;100563.53;7394321;19;20414;-66
2023/07/27 04:06:39;;;;;;;7.60;6.60;;;;;;;11.05;93.88;100563.47;7393414;19;20034;-66
2023/07/27 04:09:08;;;;;;;7.50;6.70;;;;;;;11.09;93.71;100559.00;7399460;19;20035;-66
2023/07/27 04:11:36;;;;;;;7.50;6.68;;;;;;;11.12;93.74;100550.19;7399381;19;20035;-66
2023/07/27 04:14:05;;;;;;;7.18;6.53;;;;;;;11.15;93.70;100560.63;7401830;19;20498;-66
2023/07/27 04:16:36;;;;;;;8.65;6.00;;;;;;;11.17;93.35;100564.94;7400391;19;20036;-66
2023/07/27 04:19:04;;;;;;;6.88;5.90;;;;;;;11.20;93.35;100559.59;7399479;19;20015;-66
2023/07/27 04:21:33;;;;;;;9.43;6.95;;;;;;;11.23;93.33;100563.88;7401277;19;20074;-66
2023/07/27 04:24:01;;;;;;;7.28;6.55;;;;;;;11.25;93.24;100564.72;7401547;19;20561;-66
2023/07/27 04:26:29;;;;;;;7.05;6.20;;;;;;;11.29;92.95;100560.25;7399159;19;20091;-66
2023/07/27 04:28:58;;;;;;;6.40;5.80;;;;;;;11.31;93.02;100563.69;7400992;19;20021;-66
2023/07/27 04:31:26;;;;;;;6.10;5.55;;;;;;;11.32;92.83;100558.41;7401183;19;20006;-66
2023/07/27 04:33:57;;;;;;;6.57;5.97;;;;;;;11.36;92.86;100560.03;7397886;19;20078;-65
2023/07/27 04:36:26;;;;;;;7.32;5.32;;;;;;;11.39;92.63;100554.69;7398062;19;20035;-66
2023/07/27 04:38:54;;;;;;;13.57;5.53;;;;;;;11.43;92.67;100554.59;7400511;19;20015;-66
2023/07/27 04:41:23;;;;;;;7.63;6.32;;;;;;;11.47;92.61;100549.19;7400043;19;20185;-66
2023/07/27 04:43:51;;;;;;;8.18;5.68;;;;;;;11.52;92.50;100555.19;7399766;19;20094;-66
2023/07/27 04:46:20;;;;;;;5.85;4.97;;;;;;;11.56;92.24;100546.34;7398591;19;20086;-66
2023/07/27 04:48:48;;;;;;;10.50;5.25;;;;;;;11.61;92.08;100542.69;7400346;19;20074;-65
2023/07/27 04:51:19;;;;;;;6.55;5.55;;;;;;;11.64;91.87;100545.22;7399652;19;20011;-66
2023/07/27 04:53:47;;;;;;;6.30;5.18;;;;;;;11.67;91.74;100540.75;7400808;19;20066;-66
2023/07/27 04:56:16;;;;;;;5.22;4.65;;;;;;;11.70;91.46;100543.31;7397205;19;20018;-66
2023/07/27 04:58:44;;;;;;;7.53;5.15;;;;;;;11.76;91.33;100546.66;7399661;19;20521;-65
2023/07/27 05:01:13;;;;;;;5.45;4.85;;;;;;;11.79;91.28;100542.16;7399756;19;20087;-65
2023/07/27 05:03:41;;;;;;;7.80;5.63;;;;;;;11.84;91.06;100536.75;7399616;19;20077;-65
2023/07/27 05:06:09;;;;;;;7.93;6.10;;;;;;;11.88;90.87;100547.13;7397794;19;20021;-65
2023/07/27 05:08:41;;;;;;;5.55;4.90;;;;;;;11.94;90.70;100534.72;7399117;19;20086;-65
2023/07/27 05:11:10;;;;;;;6.50;5.28;;;;;;;12.00;90.47;100532.78;7399716;19;20074;-65
2023/07/27 05:13:38;;;;;;;5.90;5.25;;;;;;;12.04;90.48;100530.91;7399273;19;20026;-65
2023/07/27 05:16:07;;;;;;;6.05;5.25;;;;;;;12.11;90.27;100536.88;7396193;19;20018;-65
2023/07/27 05:18:36;;;;;;;7.70;4.97;;;;;;;12.15;90.09;100533.22;7398266;19;20070;-64
2023/07/27 05:21:04;;;;;;;7.05;5.20;;;;;;;12.22;89.73;100538.22;7399270;19;20073;-65
2023/07/27 05:23:33;;;;;;;17.45;4.88;;;;;;;12.28;89.63;100536.31;7398940;19;20070;-66
2023/07/27 05:26:05;;;;;;;6.43;5.10;;;;;;;12.34;89.37;100528.22;7397479;19;20073;-65
2023/07/27 05:28:33;;;;;;;5.60;4.75;;;;;;;12.42;89.43;100531.44;7399544;19;20014;-65
2023/07/27 05:31:02;;;;;;;7.03;5.20;;;;;;;12.50;89.23;100534.69;7395738;19;20493;-65
2023/07/27 05:33:30;;;;;;;5.90;4.70;;;;;;;12.59;88.78;100532.69;7399006;19;20010;-65
2023/07/27 05:35:59;;;;;;;6.55;5.45;;;;;;;12.66;88.69;100532.44;7398516;19;20075;-65
2023/07/27 05:38:27;;;;;;;6.07;5.10;;;;;;;12.74;88.62;100524.28;7398540;19;20369;-65
2023/07/27 05:41:00;;;;;;;5.97;5.30;;;;;;;12.82;88.13;100521.38;7396274;19;20031;-65
2023/07/27 05:43:31;;;;;;;6.78;4.60;;;;;;;12.90;87.86;100519.31;7398884;19;20031;-65
2023/07/27 05:46:00;;;;;;;6.57;4.93;;;;;;;12.98;87.39;100516.44;7396438;19;20092;-65
2023/07/27 05:48:30;;;;;;;5.05;4.32;;;;;;;13.05;87.10;100517.91;7398004;19;20015;-65
2023/07/27 05:50:58;;;;;;;7.65;4.70;;;;;;;13.12;86.86;100515.94;7399211;19;20011;-65
2023/07/27 05:53:27;;;;;;;5.70;4.93;;;;;;;13.20;86.19;100516.50;7399972;19;20070;-66
2023/07/27 05:55:55;;;;;;;6.03;4.15;;;;;;;13.28;85.77;100505.69;7398812;19;20023;-65
2023/07/27 05:58:24;;;;;;;6.38;4.80;;;;;;;13.38;85.63;100506.25;7399205;19;20078;-65
2023/07/27 06:01:06;;;;;;;5.00;3.72;;;;;;;13.50;85.26;100513.69;7397744;19;20034;-65
2023/07/27 06:03:35;;;;;;;5.22;4.72;;;;;;;13.58;85.02;100516.88;7395853;19;20066;-65
2023/07/27 06:06:03;;;;;;;7.28;4.03;;;;;;;13.62;84.67;100515.88;7395751;19;21935;-65
2023/07/27 06:08:33;;;;;;;5.38;4.57;;;;;;;13.66;84.46;100509.56;7397777;19;20010;-65
2023/07/27 06:11:04;;;;;;;4.40;3.95;;;;;;;13.68;84.33;100512.13;7397772;19;20028;-65
2023/07/27 06:13:33;;;;;;;5.70;4.43;;;;;;;13.71;84.48;100508.53;7398587;19;20007;-65
2023/07/27 06:16:05;;;;;;;6.60;5.00;;;;;;;13.74;84.34;100504.00;7395280;19;20015;-65
2023/07/27 06:18:33;;;;;;;5.57;5.03;;;;;;;13.79;84.28;100506.47;7398155;19;20094;-65
2023/07/27 06:21:02;;;;;;;6.50;4.40;;;;;;;13.85;84.17;100514.13;7397069;19;20086;-65
2023/07/27 06:23:30;;;;;;;5.97;4.47;;;;;;;13.92;83.91;100506.81;7397543;19;20014;-65
2023/07/27 06:25:59;;;;;;;4.95;4.40;;;;;;;14.01;83.75;100511.72;7396260;19;20430;-65
2023/07/27 06:28:27;;;;;;;9.10;5.82;;;;;;;14.11;83.76;100507.78;7395626;19;20022;-65
2023/07/27 06:30:56;;;;;;;7.20;4.28;;;;;;;14.22;83.69;100512.66;7395040;19;20035;-65
2023/07/27 06:33:27;;;;;;;8.85;5.47;;;;;;;14.32;82.99;100513.16;7394817;19;20348;-65
2023/07/27 06:35:55;;;;;;;5.70;4.65;;;;;;;14.41;83.05;100504.00;7396781;19;20105;-65
2023/07/27 06:38:23;;;;;;;5.47;3.85;;;;;;;14.54;82.42;100504.31;7394875;19;20083;-65
2023/07/27 06:40:52;;;;;;;6.00;4.45;;;;;;;14.64;81.85;100503.88;7396928;19;20086;-65
2023/07/27 06:43:20;;;;;;;5.22;3.90;;;;;;;14.77;81.55;100496.31;7394567;19;20078;-65
2023/07/27 06:45:49;;;;;;;5.78;4.28;;;;;;;14.90;81.07;100493.13;7396001;19;20090;-66
2023/07/27 06:48:18;;;;;;;5.40;3.90;;;;;;;15.01;80.76;100488.22;7394903;19;20070;-65
2023/07/27 06:50:49;;;;;;;4.80;4.05;;;;;;;15.14;80.31;100494.69;7396368;19;20078;-65
2023/07/27 06:53:17;;;;;;;3.97;3.55;;;;;;;15.26;79.89;100493.25;7396397;19;20085;-65
2023/07/27 06:55:46;;;;;;;6.05;3.85;;;;;;;15.37;79.74;100499.88;7396461;19;20027;-65
2023/07/27 06:58:14;;;;;;;4.63;3.67;;;;;;;15.46;79.00;100499.44;7394592;19;20029;-65
2023/07/27 07:00:42;;;;;;;4.63;3.58;;;;;;;15.55;78.89;100506.09;7396450;19;20014;-65
2023/07/27 07:03:11;;;;;;;5.22;3.95;;;;;;;15.63;78.41;100502.16;7394147;19;20493;-64
2023/07/27 07:05:39;;;;;;;5.68;3.72;;;;;;;15.73;77.64;100507.00;7395879;19;20484;-64
2023/07/27 07:08:10;;;;;;;4.82;4.15;;;;;;;15.79;77.43;100507.56;7394116;19;20014;-64
2023/07/27 07:10:39;;;;;;;3.85;3.55;;;;;;;15.87;77.51;100509.03;7395344;19;20017;-65
2023/07/27 07:13:07;;;;;;;4.88;3.78;;;;;;;15.92;77.26;100502.63;7393558;19;20077;-65
2023/07/27 07:15:42;;;;;;;5.15;4.10;;;;;;;16.00;76.83;100490.78;7395184;19;20018;-65
2023/07/27 07:18:11;;;;;;;5.00;3.38;;;;;;;16.07;77.00;100501.00;7393971;19;20066;-64
2023/07/27 07:20:39;;;;;;;4.10;3.70;;;;;;;16.11;76.48;100497.28;7393350;19;20065;-65
2023/07/27 07:23:10;;;;;;;6.05;3.92;;;;;;;16.12;76.27;100498.13;7394843;19;20414;-65
2023/07/27 07:25:40;;;;;;;3.95;3.55;;;;;;;16.12;76.83;100504.28;7395560;19;20070;-65
2023/07/27 07:28:08;;;;;;;6.45;3.85;;;;;;;16.09;76.32;100499.13;7393104;19;20506;-63
2023/07/27 07:30:40;;;;;;;6.53;4.20;;;;;;;16.05;76.27;100497.56;7397060;19;20011;-64
2023/07/27 07:33:09;;;;;;;5.07;3.80;;;;;;;16.00;76.50;100502.25;7396923;19;20018;-65
2023/07/27 07:35:38;;;;;;;5.03;3.65;;;;;;;15.96;76.71;100504.16;7394416;19;20037;-65
2023/07/27 07:38:09;;;;;;;5.18;4.03;;;;;;;15.96;77.01;100498.00;7392394;19;20379;-66
2023/07/27 07:40:38;;;;;;;5.25;3.85;;;;;;;15.94;76.83;100495.44;7394161;19;20031;-65
2023/07/27 07:43:08;;;;;;;5.47;3.85;;;;;;;15.91;76.70;100489.44;7395027;19;20011;-65
2023/07/27 07:45:36;;;;;;;5.80;4.05;;;;;;;15.89;76.93;100486.03;7394686;19;20127;-64
2023/07/27 07:48:05;;;;;;;4.25;3.78;;;;;;;15.87;77.09;100490.53;7392925;19;20078;-64
2023/07/27 07:50:38;;;;;;;6.50;3.70;;;;;;;15.83;76.87;100491.59;7392725;19;20477;-64
2023/07/27 07:53:07;;;;;;;5.75;3.60;;;;;;;15.78;77.06;100481.19;7394508;19;20010;-65
2023/07/27 07:55:39;;;;;;;6.97;3.47;;;;;;;15.75;77.64;100479.56;7394490;19;20015;-65
2023/07/27 07:58:08;;;;;;;5.68;4.05;;;;;;;15.75;77.68;100484.00;7392569;19;20423;-65
2023/07/27 08:00:37;;;;;;;5.97;4.35;;;;;;;15.75;77.82;100474.28;7392901;19;20070;-66
2023/07/27 08:03:06;;;;;;;5.85;4.55;;;;;;;15.74;77.77;100471.72;7394527;19;20027;-65
2023/07/27 08:05:34;;;;;;;5.82;4.50;;;;;;;15.74;77.88;100466.41;7394187;19;20016;-65
2023/07/27 08:08:03;;;;;;;4.57;3.60;;;;;;;15.73;78.03;100475.28;7391863;19;20033;-65
2023/07/27 08:10:32;;;;;;;4.18;3.75;;;;;;;15.73;78.04;100476.16;7392535;19;20017;-65
2023/07/27 08:13:03;;;;;;;4.25;3.80;;;;;;;15.73;78.07;100468.22;7393858;19;20552;-65
2023/07/27 08:15:31;;;;;;;6.00;4.00;;;;;;;15.74;77.85;100475.19;7394693;19;20066;-64
2023/07/27 08:18:00;;;;;;;8.75;5.03;;;;;;;15.74;78.30;100467.25;7391507;19;20481;-65
2023/07/27 08:20:28;;;;;;;6.95;4.60;;;;;;;15.74;78.67;100461.97;7391688;19;20010;-65
2023/07/27 08:22:56;;;;;;;5.65;5.00;;;;;;;15.74;78.68;100450.56;7393965;19;20015;-65
2023/07/27 08:25:25;;;;;;;5.13;4.63;;;;;;;15.74;79.16;100445.25;7393576;19;20074;-64
2023/07/27 08:27:55;;;;;;;8.43;6.03;;;;;;;15.76;79.78;100443.41;7391270;19;20504;-65
2023/07/27 08:30:25;;;;;;;7.45;5.30;;;;;;;15.76;80.02;100441.59;7391968;19;20091;-65
2023/07/27 08:32:54;;;;;;;8.85;4.88;;;;;;;15.80;80.38;100440.53;7394030;19;20078;-65
2023/07/27 08:35:23;;;;;;;5.78;4.70;;;;;;;15.82;80.62;100434.34;7393522;19;20014;-64
2023/07/27 08:37:51;;;;;;;6.53;4.38;;;;;;;15.84;80.72;100425.41;7390806;19;20021;-66
2023/07/27 08:40:20;;;;;;;5.00;4.07;;;;;;;15.90;81.07;100429.53;7393543;19;20082;-65
2023/07/27 08:42:49;;;;;;;5.95;4.30;;;;;;;15.94;81.25;100420.53;7391310;19;20074;-65
2023/07/27 08:45:22;;;;;;;5.40;4.68;;;;;;;15.98;81.14;100414.13;7393267;19;20066;-66
2023/07/27 08:47:55;;;;;;;7.03;4.38;;;;;;;16.06;81.24;100414.63;7391258;19;20066;-66
2023/07/27 08:50:24;;;;;;;7.72;5.97;;;;;;;16.16;81.25;100408.84;7393784;19;20074;-66
2023/07/27 08:52:53;;;;;;;4.70;3.60;;;;;;;16.25;81.58;100403.09;7394808;19;20014;-66
2023/07/27 08:55:21;;;;;;;8.70;6.43;;;;;;;16.37;81.25;100410.41;7400270;19;20029;-66
2023/07/27 08:57:50;;;;;;;6.40;4.72;;;;;;;16.52;80.84;100405.28;7397620;19;20022;-66
2023/07/27 09:00:19;;;;;;;6.13;4.43;;;;;;;16.64;80.44;100398.47;7400170;19;20081;-66
2023/07/27 09:02:47;;;;;;;6.47;4.68;;;;;;;16.80;80.17;100399.38;7400259;19;20021;-66
2023/07/27 09:05:18;;;;;;;5.38;4.40;;;;;;;16.97;80.09;100398.47;7400057;19;20093;-66
2023/07/27 09:07:50;;;;;;;6.15;4.38;;;;;;;17.15;79.15;100399.28;7397658;19;20023;-66
2023/07/27 09:10:19;;;;;;;4.70;3.80;;;;;;;17.32;78.41;100393.03;7400271;19;20031;-66
2023/07/27 09:13:10;;;;;;;4.93;4.00;;;;;;;17.49;78.00;100386.81;7398951;19;20429;-66
2023/07/27 09:15:45;;;;;;;5.53;3.47;;;;;;;17.61;77.06;100373.78;7399586;19;20015;-66
2023/07/27 09:18:19;;;;;;;4.10;3.40;;;;;;;17.77;76.94;100374.63;7397168;19;20114;-67
2023/07/27 09:20:50;;;;;;;6.88;3.40;;;;;;;17.90;75.81;100375.59;7398775;19;20493;-66
2023/07/27 09:23:22;;;;;;;5.43;4.18;;;;;;;18.03;74.90;100369.63;7399083;19;20011;-67
2023/07/27 09:25:57;;;;;;;7.28;5.05;;;;;;;18.17;74.51;100374.09;7396318;19;20029;-66
2023/07/27 09:28:27;;;;;;;4.07;3.03;;;;;;;18.32;73.21;100362.56;7396786;19;20162;-65
2023/07/27 09:30:59;;;;;;;6.15;3.28;;;;;;;18.48;72.84;100364.31;7399013;19;20362;-65
2023/07/27 09:33:28;;;;;;;3.00;2.60;;;;;;;18.65;71.82;100363.25;7398773;19;20481;-65
2023/07/27 09:36:01;;;;;;;4.55;3.50;;;;;;;18.79;70.14;100355.28;7398769;19;20015;-66
2023/07/27 09:38:30;;;;;;;4.15;3.15;;;;;;;18.93;69.54;100354.47;7397476;19;20035;-66
2023/07/27 09:40:59;;;;;;;5.93;2.88;;;;;;;19.02;68.28;100353.88;7396579;19;20433;-67
2023/07/27 09:43:27;;;;;;;4.18;3.15;;;;;;;19.16;68.26;100349.50;7397826;19;20007;-66
2023/07/27 09:46:00;;;;;;;4.20;2.45;;;;;;;19.27;67.42;100347.00;7398140;19;20027;-65
2023/07/27 09:48:29;;;;;;;5.23;4.10;;;;;;;19.39;67.23;100345.34;7396548;19;20365;-66
2023/07/27 09:51:00;;;;;;;3.63;2.70;;;;;;;19.52;66.70;100329.41;7398198;19;20445;-67
2023/07/27 09:53:32;;;;;;;3.85;2.83;;;;;;;19.61;65.81;100331.44;7398424;19;20011;-66
2023/07/27 09:56:02;;;;;;;5.15;3.13;;;;;;;19.69;65.26;100331.81;7395325;19;20014;-66
2023/07/27 09:58:31;;;;;;;4.80;2.70;;;;;;;19.77;64.74;100336.63;7397854;19;20102;-67
2023/07/27 10:01:00;;;;;;;3.58;2.83;;;;;;;19.85;64.49;100330.81;7396853;19;20013;-67
2023/07/27 10:03:29;;;;;;;4.20;2.50;;;;;;;19.94;63.77;100334.66;7397089;19;20022;-68
2023/07/27 10:06:00;;;;;;;5.32;2.80;;;;;;;19.96;62.18;100322.94;7396830;19;20090;-67
2023/07/27 10:08:29;;;;;;;5.97;2.75;;;;;;;19.99;62.34;100317.44;7395239;19;20021;-67
2023/07/27 10:11:00;;;;;;;4.80;2.83;;;;;;;20.00;61.33;100312.94;7397356;19;20015;-66
2023/07/27 10:13:40;;;;;;;5.22;2.58;;;;;;;20.01;59.21;100314.66;7398110;19;20010;-66
2023/07/27 10:16:17;;;;;;;2.40;2.17;;;;;;;20.04;61.01;100316.25;7396789;19;20130;-66
2023/07/27 10:18:48;;;;;;;5.53;2.55;;;;;;;20.08;61.34;100310.63;7395677;19;20126;-66
2023/07/27 10:21:32;;;;;;;6.03;2.70;;;;;;;20.15;60.34;100313.72;7397377;19;20017;-66
2023/07/27 10:24:02;;;;;;;6.07;2.60;;;;;;;20.19;61.09;100312.53;7396031;19;20003;-65
2023/07/27 10:26:50;;;;;;;3.55;2.40;;;;;;;20.25;59.02;100311.28;7395853;19;20010;-66
2023/07/27 10:29:20;;;;;;;4.03;2.38;;;;;;;20.31;60.58;100311.69;7395634;19;20018;-66
2023/07/27 10:32:02;;;;;;;2.60;2.17;;;;;;;20.37;58.91;100309.56;7395661;19;20022;-66
2023/07/27 10:34:32;;;;;;;7.97;3.03;;;;;;;20.43;59.64;100306.47;7394378;19;20010;-67
2023/07/27 10:37:05;;;;;;;4.38;2.60;;;;;;;20.47;59.17;100305.28;7396250;19;20015;-67
2023/07/27 10:39:35;;;;;;;3.53;2.30;;;;;;;20.53;59.58;100304.00;7395686;19;20533;-68
2023/07/27 10:42:08;;;;;;;5.45;2.60;;;;;;;20.59;59.22;100311.56;7397441;19;20086;-67
2023/07/27 10:44:48;;;;;;;5.68;2.33;;;;;;;20.63;58.56;100302.41;7397028;19;20033;-67
2023/07/27 10:47:18;;;;;;;6.38;2.75;;;;;;;20.64;57.81;100310.28;7395324;19;20038;-67
2023/07/27 10:49:49;;;;;;;4.75;2.60;;;;;;;20.60;57.66;100305.25;7395540;19;20014;-67
2023/07/27 10:52:21;;;;;;;5.70;2.15;;;;;;;20.50;55.67;100305.91;7396481;19;20018;-67
2023/07/27 10:54:51;;;;;;;4.20;2.33;;;;;;;20.41;57.03;100319.03;7395842;19;20023;-67
2023/07/27 10:57:21;;;;;;;7.78;2.65;;;;;;;20.32;57.37;100317.84;7395513;19;20010;-67
2023/07/27 10:59:50;;;;;;;2.63;2.17;;;;;;;20.25;58.31;100296.13;7395489;19;20021;-67
2023/07/27 11:02:21;;;;;;;3.13;2.20;;;;;;;20.15;58.14;100313.72;7394760;19;20018;-67
2023/07/27 11:04:51;;;;;;;4.65;2.50;;;;;;;20.09;59.30;100308.81;7396285;19;20014;-67
2023/07/27 11:07:32;;;;;;;4.78;2.70;;;;;;;20.02;59.54;100301.22;7395170;19;20094;-67
2023/07/27 11:10:01;;;;;;;2.80;2.40;;;;;;;19.96;60.14;100306.13;7394569;19;20031;-67
2023/07/27 11:12:30;;;;;;;5.15;2.60;;;;;;;19.88;61.04;100301.34;7393817;19;20422;-67
2023/07/27 11:15:15;;;;;;;3.58;2.25;;;;;;;19.84;60.67;100302.47;7393051;19;20018;-68
2023/07/27 11:17:44;;;;;;;2.58;2.38;;;;;;;19.80;61.47;100295.63;7393473;19;20011;-67
2023/07/27 11:20:14;;;;;;;4.63;2.78;;;;;;;19.79;61.95;100283.28;7394191;19;20378;-67
2023/07/27 11:22:45;;;;;;;3.30;2.53;;;;;;;19.80;61.98;100279.66;7394068;19;20033;-67
2023/07/27 11:25:14;;;;;;;5.75;2.78;;;;;;;19.82;62.61;100275.09;7396979;19;20028;-67
2023/07/27 11:27:43;;;;;;;5.30;2.90;;;;;;;19.84;62.38;100265.22;7394530;19;20090;-66
2023/07/27 11:30:16;;;;;;;4.53;3.08;;;;;;;19.89;62.68;100272.91;7393900;19;20032;-66
2023/07/27 11:32:44;;;;;;;;;;;;;;;19.89;62.32;100259.59;7396040;19;20010;-66
2023/07/27 11:35:13;;;;;;;6.68;3.10;;;;;;;19.93;62.65;100261.06;7395511;19;19935;-66
2023/07/27 11:37:41;;;;;;;8.40;2.92;;;;;;;19.97;63.00;100259.94;7394282;19;20082;-65